sensor_id;sensor_type;location;lat;lon;timestamp;pressure;altitude;pressure_sealevel;temperature;humidity
78309;BME280;67566;42.022;21.356;2023-11-21T00:02:02;98588.34;;;3.43;78.62
78309;BME280;67566;42.022;21.356;2023-11-21T00:04:29;98583.88;;;3.43;78.14
78309;BME280;67566;42.022;21.356;2023-11-21T00:06:55;98580.97;;;3.45;78.16
78309;BME280;67566;42.022;21.356;2023-11-21T00:09:20;98582.50;;;3.40;78.74
78309;BME280;67566;42.022;21.356;2023-11-21T00:11:46;98579.59;;;3.37;78.85
78309;BME280;67566;42.022;21.356;2023-11-21T00:14:11;98586.38;;;3.28;79.21
78309;BME280;67566;42.022;21.356;2023-11-21T00:16:37;98592.44;;;3.28;79.01
78309;BME280;67566;42.022;21.356;2023-11-21T00:19:02;98592.19;;;3.30;79.24
78309;BME280;67566;42.022;21.356;2023-11-21T00:21:28;98587.47;;;3.32;79.11
78309;BME280;67566;42.022;21.356;2023-11-21T00:23:53;98594.31;;;3.33;79.23
78309;BME280;67566;42.022;21.356;2023-11-21T00:26:19;98596.69;;;3.34;79.08
78309;BME280;67566;42.022;21.356;2023-11-21T00:28:44;98602.25;;;3.38;79.17
78309;BME280;67566;42.022;21.356;2023-11-21T00:31:11;98598.59;;;3.39;78.95
78309;BME280;67566;42.022;21.356;2023-11-21T00:33:36;98594.88;;;3.40;79.17
78309;BME280;67566;42.022;21.356;2023-11-21T00:36:02;98589.38;;;3.42;79.09
78309;BME280;67566;42.022;21.356;2023-11-21T00:38:27;98587.78;;;3.40;79.12
78309;BME280;67566;42.022;21.356;2023-11-21T00:40:53;98594.88;;;3.40;79.02
78309;BME280;67566;42.022;21.356;2023-11-21T00:43:22;98595.09;;;3.33;79.80
78309;BME280;67566;42.022;21.356;2023-11-21T00:45:48;98603.28;;;3.37;79.32
78309;BME280;67566;42.022;21.356;2023-11-21T00:48:14;98596.19;;;3.37;79.07
78309;BME280;67566;42.022;21.356;2023-11-21T00:50:40;98600.16;;;3.40;78.89
78309;BME280;67566;42.022;21.356;2023-11-21T00:53:05;98592.78;;;3.42;79.48
78309;BME280;67566;42.022;21.356;2023-11-21T00:55:32;98605.44;;;3.45;79.39
78309;BME280;67566;42.022;21.356;2023-11-21T00:57:58;98594.13;;;3.45;78.99
78309;BME280;67566;42.022;21.356;2023-11-21T01:00:25;98598.38;;;3.51;79.06
78309;BME280;67566;42.022;21.356;2023-11-21T01:02:50;98591.56;;;3.55;78.60
78309;BME280;67566;42.022;21.356;2023-11-21T01:05:16;98591.56;;;3.55;79.52
78309;BME280;67566;42.022;21.356;2023-11-21T01:07:41;98589.44;;;3.52;79.01
78309;BME280;67566;42.022;21.356;2023-11-21T01:10:07;98582.06;;;3.49;79.27
78309;BME280;67566;42.022;21.356;2023-11-21T01:12:39;98581.72;;;3.40;78.47
78309;BME280;67566;42.022;21.356;2023-11-21T01:15:06;98581.94;;;3.33;78.58
78309;BME280;67566;42.022;21.356;2023-11-21T01:17:37;98586.38;;;3.28;78.62
78309;BME280;67566;42.022;21.356;2023-11-21T01:20:04;98591.66;;;3.28;78.39
78309;BME280;67566;42.022;21.356;2023-11-21T01:22:38;98586.09;;;3.24;78.42
78309;BME280;67566;42.022;21.356;2023-11-21T01:25:04;98575.28;;;3.20;78.90
78309;BME280;67566;42.022;21.356;2023-11-21T01:27:31;98573.41;;;3.16;78.73
78309;BME280;67566;42.022;21.356;2023-11-21T01:29:57;98576.81;;;3.11;79.16
78309;BME280;67566;42.022;21.356;2023-11-21T01:32:22;98567.28;;;3.05;79.15
78309;BME280;67566;42.022;21.356;2023-11-21T01:34:50;98580.94;;;3.02;79.56
78309;BME280;67566;42.022;21.356;2023-11-21T01:37:16;98571.97;;;2.98;79.45
78309;BME280;67566;42.022;21.356;2023-11-21T01:39:43;98574.34;;;2.99;79.79
78309;BME280;67566;42.022;21.356;2023-11-21T01:42:09;98575.91;;;2.95;79.77
78309;BME280;67566;42.022;21.356;2023-11-21T01:44:34;98575.91;;;2.95;79.66
78309;BME280;67566;42.022;21.356;2023-11-21T01:47:01;98561.94;;;2.95;79.35
78309;BME280;67566;42.022;21.356;2023-11-21T01:49:32;98557.25;;;3.02;79.52
78309;BME280;67566;42.022;21.356;2023-11-21T01:51:58;98556.22;;;3.03;79.79
78309;BME280;67566;42.022;21.356;2023-11-21T01:54:25;98544.34;;;3.00;79.95
78309;BME280;67566;42.022;21.356;2023-11-21T01:56:50;98550.66;;;2.99;79.90
78309;BME280;67566;42.022;21.356;2023-11-21T01:59:18;98546.25;;;3.05;80.00
78309;BME280;67566;42.022;21.356;2023-11-21T02:01:46;98537.81;;;3.03;79.86
78309;BME280;67566;42.022;21.356;2023-11-21T02:04:12;98542.28;;;3.02;79.63
78309;BME280;67566;42.022;21.356;2023-11-21T02:06:38;98537.53;;;2.99;79.68
78309;BME280;67566;42.022;21.356;2023-11-21T02:09:04;98535.13;;;2.98;79.83
78309;BME280;67566;42.022;21.356;2023-11-21T02:11:30;98531.72;;;2.97;79.62
78309;BME280;67566;42.022;21.356;2023-11-21T02:13:59;98538.06;;;3.01;79.89
78309;BME280;67566;42.022;21.356;2023-11-21T02:16:24;98535.72;;;3.05;79.88
78309;BME280;67566;42.022;21.356;2023-11-21T02:18:51;98538.13;;;3.12;79.81
78309;BME280;67566;42.022;21.356;2023-11-21T02:21:17;98541.06;;;3.15;79.95
78309;BME280;67566;42.022;21.356;2023-11-21T02:23:44;98543.47;;;3.22;80.01
78309;BME280;67566;42.022;21.356;2023-11-21T02:26:12;98551.66;;;3.26;79.87
78309;BME280;67566;42.022;21.356;2023-11-21T02:28:38;98538.25;;;3.27;79.68
78309;BME280;67566;42.022;21.356;2023-11-21T02:31:04;98546.88;;;3.22;80.03
78309;BME280;67566;42.022;21.356;2023-11-21T02:33:31;98545.03;;;3.23;79.97
78309;BME280;67566;42.022;21.356;2023-11-21T02:36:02;98534.50;;;3.23;80.02
78309;BME280;67566;42.022;21.356;2023-11-21T02:38:27;98537.44;;;3.27;80.10
78309;BME280;67566;42.022;21.356;2023-11-21T02:40:53;98525.09;;;3.27;80.13
78309;BME280;67566;42.022;21.356;2023-11-21T02:43:18;98532.47;;;3.30;80.05
78309;BME280;67566;42.022;21.356;2023-11-21T02:45:44;98533.25;;;3.31;79.99
78309;BME280;67566;42.022;21.356;2023-11-21T02:48:09;98536.97;;;3.35;80.13
78309;BME280;67566;42.022;21.356;2023-11-21T02:50:35;98536.94;;;3.30;80.25
78309;BME280;67566;42.022;21.356;2023-11-21T02:53:01;98537.13;;;3.23;80.90
78309;BME280;67566;42.022;21.356;2023-11-21T02:55:27;98533.97;;;3.21;80.35
78309;BME280;67566;42.022;21.356;2023-11-21T02:57:53;98535.28;;;3.18;80.83
78309;BME280;67566;42.022;21.356;2023-11-21T03:00:21;98537.63;;;3.15;80.39
78309;BME280;67566;42.022;21.356;2023-11-21T03:02:49;98540.00;;;3.16;80.88
78309;BME280;67566;42.022;21.356;2023-11-21T03:05:15;98540.25;;;3.15;80.42
78309;BME280;67566;42.022;21.356;2023-11-21T03:07:40;98543.16;;;3.13;80.51
78309;BME280;67566;42.022;21.356;2023-11-21T03:10:07;98541.53;;;3.12;80.66
78309;BME280;67566;42.022;21.356;2023-11-21T03:12:34;98536.78;;;3.09;80.24
78309;BME280;67566;42.022;21.356;2023-11-21T03:15:00;98541.50;;;3.07;80.30
78309;BME280;67566;42.022;21.356;2023-11-21T03:17:27;98533.88;;;3.06;81.24
78309;BME280;67566;42.022;21.356;2023-11-21T03:19:54;98530.94;;;3.02;80.70
78309;BME280;67566;42.022;21.356;2023-11-21T03:22:20;98534.66;;;3.01;80.83
78309;BME280;67566;42.022;21.356;2023-11-21T03:24:45;98520.66;;;2.95;80.58
78309;BME280;67566;42.022;21.356;2023-11-21T03:27:11;98527.78;;;3.00;80.88
78309;BME280;67566;42.022;21.356;2023-11-21T03:29:37;98532.25;;;2.99;80.96
78309;BME280;67566;42.022;21.356;2023-11-21T03:32:03;98520.16;;;2.98;80.64
78309;BME280;67566;42.022;21.356;2023-11-21T03:34:28;98526.19;;;2.94;80.72
78309;BME280;67566;42.022;21.356;2023-11-21T03:36:54;98523.25;;;2.90;80.73
78309;BME280;67566;42.022;21.356;2023-11-21T03:39:20;98531.16;;;2.90;80.89
78309;BME280;67566;42.022;21.356;2023-11-21T03:41:46;98533.78;;;2.90;81.27
78309;BME280;67566;42.022;21.356;2023-11-21T03:44:13;98539.09;;;2.95;81.22
78309;BME280;67566;42.022;21.356;2023-11-21T03:46:38;98525.63;;;2.92;81.56
78309;BME280;67566;42.022;21.356;2023-11-21T03:49:04;98525.13;;;2.95;81.00
78309;BME280;67566;42.022;21.356;2023-11-21T03:51:29;98524.38;;;2.99;81.13
78309;BME280;67566;42.022;21.356;2023-11-21T03:53:55;98520.69;;;3.00;81.42
78309;BME280;67566;42.022;21.356;2023-11-21T03:56:20;98530.69;;;3.03;80.98
78309;BME280;67566;42.022;21.356;2023-11-21T03:58:47;98532.56;;;3.03;81.40
78309;BME280;67566;42.022;21.356;2023-11-21T04:01:23;98524.41;;;3.05;81.13
78309;BME280;67566;42.022;21.356;2023-11-21T04:03:49;98519.94;;;3.05;81.26
78309;BME280;67566;42.022;21.356;2023-11-21T04:06:16;98527.78;;;3.00;80.92
78309;BME280;67566;42.022;21.356;2023-11-21T04:08:43;98527.72;;;2.90;81.60
78309;BME280;67566;42.022;21.356;2023-11-21T04:11:09;98522.97;;;2.87;81.05
78309;BME280;67566;42.022;21.356;2023-11-21T04:13:37;98534.81;;;2.89;81.13
78309;BME280;67566;42.022;21.356;2023-11-21T04:16:04;98540.31;;;2.88;80.97
78309;BME280;67566;42.022;21.356;2023-11-21T04:18:30;98544.50;;;2.83;81.42
78309;BME280;67566;42.022;21.356;2023-11-21T04:20:55;98538.44;;;2.83;81.60
78309;BME280;67566;42.022;21.356;2023-11-21T04:23:21;98534.53;;;2.86;81.34
78309;BME280;67566;42.022;21.356;2023-11-21T04:25:46;98527.16;;;2.88;81.67
78309;BME280;67566;42.022;21.356;2023-11-21T04:28:11;98529.25;;;2.86;81.01
78309;BME280;67566;42.022;21.356;2023-11-21T04:30:37;98530.06;;;2.86;81.73
78309;BME280;67566;42.022;21.356;2023-11-21T04:33:04;98535.31;;;2.86;81.23
78309;BME280;67566;42.022;21.356;2023-11-21T04:35:30;98525.84;;;2.85;81.67
78309;BME280;67566;42.022;21.356;2023-11-21T04:37:55;98521.88;;;2.82;81.56
78309;BME280;67566;42.022;21.356;2023-11-21T04:40:22;98528.72;;;2.83;81.33
78309;BME280;67566;42.022;21.356;2023-11-21T04:42:48;98520.31;;;2.81;81.68
78309;BME280;67566;42.022;21.356;2023-11-21T04:45:13;98528.72;;;2.83;81.54
78309;BME280;67566;42.022;21.356;2023-11-21T04:47:39;98523.47;;;2.83;81.75
78309;BME280;67566;42.022;21.356;2023-11-21T04:50:05;98524.78;;;2.86;81.65
78309;BME280;67566;42.022;21.356;2023-11-21T04:52:31;98519.53;;;2.86;81.67
78309;BME280;67566;42.022;21.356;2023-11-21T04:54:58;98523.72;;;2.82;81.36
78309;BME280;67566;42.022;21.356;2023-11-21T04:57:26;98521.81;;;2.77;80.97
78309;BME280;67566;42.022;21.356;2023-11-21T04:59:51;98522.81;;;2.66;81.24
78309;BME280;67566;42.022;21.356;2023-11-21T05:02:17;98528.25;;;2.59;81.24
78309;BME280;67566;42.022;21.356;2023-11-21T05:04:45;98524.81;;;2.54;81.64
78309;BME280;67566;42.022;21.356;2023-11-21T05:07:10;98527.38;;;2.49;81.82
78309;BME280;67566;42.022;21.356;2023-11-21T05:09:41;98522.63;;;2.45;81.71
78309;BME280;67566;42.022;21.356;2023-11-21T05:12:06;98532.34;;;2.45;81.91
78309;BME280;67566;42.022;21.356;2023-11-21T05:14:32;98517.31;;;2.40;81.79
78309;BME280;67566;42.022;21.356;2023-11-21T05:16:58;98523.34;;;2.41;81.81
78309;BME280;67566;42.022;21.356;2023-11-21T05:19:24;98535.69;;;2.40;82.18
78309;BME280;67566;42.022;21.356;2023-11-21T05:21:49;98542.56;;;2.41;81.75
78309;BME280;67566;42.022;21.356;2023-11-21T05:24:15;98546.50;;;2.44;81.82
78309;BME280;67566;42.022;21.356;2023-11-21T05:26:41;98539.16;;;2.46;81.81
78309;BME280;67566;42.022;21.356;2023-11-21T05:29:06;98544.97;;;2.48;81.26
78309;BME280;67566;42.022;21.356;2023-11-21T05:31:32;98548.41;;;2.49;81.59
78309;BME280;67566;42.022;21.356;2023-11-21T05:33:57;98544.19;;;2.48;81.81
78309;BME280;67566;42.022;21.356;2023-11-21T05:36:22;98545.53;;;2.50;81.67
78309;BME280;67566;42.022;21.356;2023-11-21T05:38:48;98539.97;;;2.47;81.37
78309;BME280;67566;42.022;21.356;2023-11-21T05:41:13;98559.09;;;2.42;81.74
78309;BME280;67566;42.022;21.356;2023-11-21T05:43:40;98554.59;;;2.37;81.91
78309;BME280;67566;42.022;21.356;2023-11-21T05:46:06;98563.56;;;2.41;80.95
78309;BME280;67566;42.022;21.356;2023-11-21T05:48:32;98559.66;;;2.44;81.64
78309;BME280;67566;42.022;21.356;2023-11-21T05:50:58;98559.41;;;2.45;81.08
78309;BME280;67566;42.022;21.356;2023-11-21T05:53:24;98572.84;;;2.49;81.27
78309;BME280;67566;42.022;21.356;2023-11-21T05:55:50;98561.00;;;2.47;81.49
78309;BME280;67566;42.022;21.356;2023-11-21T05:58:15;98559.44;;;2.51;81.30
78309;BME280;67566;42.022;21.356;2023-11-21T06:00:41;98561.34;;;2.55;81.02
78309;BME280;67566;42.022;21.356;2023-11-21T06:03:06;98561.41;;;2.60;81.29
78309;BME280;67566;42.022;21.356;2023-11-21T06:05:33;98561.94;;;2.62;81.33
78309;BME280;67566;42.022;21.356;2023-11-21T06:07:59;98567.16;;;2.57;81.96
78309;BME280;67566;42.022;21.356;2023-11-21T06:10:26;98571.25;;;2.48;81.69
78309;BME280;67566;42.022;21.356;2023-11-21T06:12:52;98561.00;;;2.47;82.07
78309;BME280;67566;42.022;21.356;2023-11-21T06:15:18;98565.25;;;2.53;82.63
78309;BME280;67566;42.022;21.356;2023-11-21T06:17:45;98564.22;;;2.54;82.08
78309;BME280;67566;42.022;21.356;2023-11-21T06:20:15;98563.75;;;2.62;81.55
78309;BME280;67566;42.022;21.356;2023-11-21T06:22:42;98561.47;;;2.71;81.87
78309;BME280;67566;42.022;21.356;2023-11-21T06:25:08;98568.66;;;2.80;82.60
78309;BME280;67566;42.022;21.356;2023-11-21T06:27:39;98569.19;;;2.82;82.63
78309;BME280;67566;42.022;21.356;2023-11-21T06:30:05;98566.91;;;2.91;82.70
78309;BME280;67566;42.022;21.356;2023-11-21T06:32:32;98559.34;;;3.00;82.29
78309;BME280;67566;42.022;21.356;2023-11-21T06:34:58;98555.75;;;3.11;82.55
78309;BME280;67566;42.022;21.356;2023-11-21T06:37:27;98559.00;;;3.24;82.77
78309;BME280;67566;42.022;21.356;2023-11-21T06:39:53;98562.03;;;3.43;82.32
78309;BME280;67566;42.022;21.356;2023-11-21T06:42:19;98560.31;;;3.64;82.23
78309;BME280;67566;42.022;21.356;2023-11-21T06:44:45;98561.69;;;3.82;82.14
78309;BME280;67566;42.022;21.356;2023-11-21T06:47:11;98567.06;;;4.02;81.55
78309;BME280;67566;42.022;21.356;2023-11-21T06:49:36;98558.66;;;4.15;81.57
78309;BME280;67566;42.022;21.356;2023-11-21T06:52:04;98557.13;;;4.30;81.31
78309;BME280;67566;42.022;21.356;2023-11-21T06:54:30;98566.34;;;4.32;81.05
78309;BME280;67566;42.022;21.356;2023-11-21T06:56:56;98560.03;;;4.33;81.58
78309;BME280;67566;42.022;21.356;2023-11-21T06:59:22;98565.03;;;4.35;81.00
78309;BME280;67566;42.022;21.356;2023-11-21T07:01:47;98570.59;;;4.39;81.43
78309;BME280;67566;42.022;21.356;2023-11-21T07:04:13;98563.22;;;4.41;81.42
78309;BME280;67566;42.022;21.356;2023-11-21T07:06:38;98567.69;;;4.45;81.50
78309;BME280;67566;42.022;21.356;2023-11-21T07:09:04;98563.22;;;4.46;81.17
78309;BME280;67566;42.022;21.356;2023-11-21T07:11:29;98548.72;;;4.48;81.37
78309;BME280;67566;42.022;21.356;2023-11-21T07:13:55;98555.03;;;4.52;81.86
78309;BME280;67566;42.022;21.356;2023-11-21T07:16:20;98539.78;;;4.54;81.41
78309;BME280;67566;42.022;21.356;2023-11-21T07:18:46;98539.50;;;4.56;81.74
78309;BME280;67566;42.022;21.356;2023-11-21T07:21:11;98532.38;;;4.57;81.34
78309;BME280;67566;42.022;21.356;2023-11-21T07:23:38;98536.34;;;4.59;81.35
78309;BME280;67566;42.022;21.356;2023-11-21T07:26:03;98545.84;;;4.65;81.72
78309;BME280;67566;42.022;21.356;2023-11-21T07:28:34;98559.56;;;4.62;81.67
78309;BME280;67566;42.022;21.356;2023-11-21T07:30:59;98564.06;;;4.67;81.67
78309;BME280;67566;42.022;21.356;2023-11-21T07:33:25;98570.13;;;4.78;81.74
78309;BME280;67566;42.022;21.356;2023-11-21T07:35:51;98564.34;;;4.91;81.75
78309;BME280;67566;42.022;21.356;2023-11-21T07:38:17;98567.22;;;5.10;80.84
78309;BME280;67566;42.022;21.356;2023-11-21T07:40:43;98557.97;;;5.23;80.91
78309;BME280;67566;42.022;21.356;2023-11-21T07:43:08;98559.03;;;5.27;80.75
78309;BME280;67566;42.022;21.356;2023-11-21T07:45:34;98547.16;;;5.29;80.75
78309;BME280;67566;42.022;21.356;2023-11-21T07:47:59;98558.22;;;5.37;80.12
78309;BME280;67566;42.022;21.356;2023-11-21T07:50:28;98547.94;;;5.35;80.06
78309;BME280;67566;42.022;21.356;2023-11-21T07:52:54;98541.84;;;5.35;80.04
78309;BME280;67566;42.022;21.356;2023-11-21T07:55:20;98544.22;;;5.36;79.85
78309;BME280;67566;42.022;21.356;2023-11-21T07:57:45;98529.69;;;5.39;79.46
78309;BME280;67566;42.022;21.356;2023-11-21T08:00:11;98528.63;;;5.40;79.76
78309;BME280;67566;42.022;21.356;2023-11-21T08:02:38;98523.34;;;5.40;79.81
78309;BME280;67566;42.022;21.356;2023-11-21T08:05:05;98533.38;;;5.43;80.33
78309;BME280;67566;42.022;21.356;2023-11-21T08:07:32;98536.28;;;5.46;80.60
78309;BME280;67566;42.022;21.356;2023-11-21T08:09:57;98528.88;;;5.48;80.53
78309;BME280;67566;42.022;21.356;2023-11-21T08:12:23;98538.91;;;5.52;79.77
78309;BME280;67566;42.022;21.356;2023-11-21T08:14:49;98536.78;;;5.54;79.85
78309;BME280;67566;42.022;21.356;2023-11-21T08:17:14;98547.88;;;5.56;80.01
78309;BME280;67566;42.022;21.356;2023-11-21T08:19:40;98538.91;;;5.52;79.90
78309;BME280;67566;42.022;21.356;2023-11-21T08:22:06;98532.03;;;5.56;80.13
78309;BME280;67566;42.022;21.356;2023-11-21T08:24:33;98531.47;;;5.59;79.33
78309;BME280;67566;42.022;21.356;2023-11-21T08:26:58;98527.00;;;5.64;80.11
78309;BME280;67566;42.022;21.356;2023-11-21T08:29:24;98528.56;;;5.65;80.10
78309;BME280;67566;42.022;21.356;2023-11-21T08:31:49;98544.41;;;5.65;79.56
78309;BME280;67566;42.022;21.356;2023-11-21T08:34:14;98545.19;;;5.71;79.66
78309;BME280;67566;42.022;21.356;2023-11-21T08:36:44;98555.72;;;5.76;79.47
78309;BME280;67566;42.022;21.356;2023-11-21T08:39:09;98544.38;;;5.81;79.45
78309;BME280;67566;42.022;21.356;2023-11-21T08:41:35;98534.31;;;5.83;79.60
78309;BME280;67566;42.022;21.356;2023-11-21T08:44:02;98526.91;;;5.85;78.89
78309;BME280;67566;42.022;21.356;2023-11-21T08:46:32;98524.50;;;5.89;79.11
78309;BME280;67566;42.022;21.356;2023-11-21T08:49:01;98522.69;;;5.84;78.93
78309;BME280;67566;42.022;21.356;2023-11-21T08:51:26;98530.06;;;5.87;79.23
78309;BME280;67566;42.022;21.356;2023-11-21T08:53:52;98527.16;;;5.89;78.86
78309;BME280;67566;42.022;21.356;2023-11-21T08:56:18;98539.56;;;5.98;78.86
78309;BME280;67566;42.022;21.356;2023-11-21T08:58:45;98532.94;;;6.01;79.00
78309;BME280;67566;42.022;21.356;2023-11-21T09:01:12;98521.03;;;6.03;79.02
78309;BME280;67566;42.022;21.356;2023-11-21T09:03:38;98509.66;;;6.08;78.51
78309;BME280;67566;42.022;21.356;2023-11-21T09:06:04;98504.31;;;6.13;78.69
78309;BME280;67566;42.022;21.356;2023-11-21T09:08:29;98492.91;;;6.23;78.63
78309;BME280;67566;42.022;21.356;2023-11-21T09:10:55;98499.47;;;6.31;78.50
78309;BME280;67566;42.022;21.356;2023-11-21T09:13:21;98502.84;;;6.41;78.37
78309;BME280;67566;42.022;21.356;2023-11-21T09:15:46;98487.22;;;6.45;78.21
78309;BME280;67566;42.022;21.356;2023-11-21T09:18:14;98474.28;;;6.43;77.65
78309;BME280;67566;42.022;21.356;2023-11-21T09:20:41;98474.78;;;6.46;77.41
78309;BME280;67566;42.022;21.356;2023-11-21T09:23:07;98469.47;;;6.51;77.50
78309;BME280;67566;42.022;21.356;2023-11-21T09:25:33;98475.50;;;6.56;77.26
78309;BME280;67566;42.022;21.356;2023-11-21T09:27:58;98456.16;;;6.61;77.66
78309;BME280;67566;42.022;21.356;2023-11-21T09:30:25;98457.69;;;6.67;77.75
78309;BME280;67566;42.022;21.356;2023-11-21T09:32:51;98451.06;;;6.70;77.04
78309;BME280;67566;42.022;21.356;2023-11-21T09:35:17;98443.06;;;6.75;77.13
78309;BME280;67566;42.022;21.356;2023-11-21T09:37:45;98442.22;;;6.79;76.25
78309;BME280;67566;42.022;21.356;2023-11-21T09:40:12;98431.03;;;6.88;76.46
78309;BME280;67566;42.022;21.356;2023-11-21T09:42:40;98421.53;;;6.87;75.66
78309;BME280;67566;42.022;21.356;2023-11-21T09:48:16;98422.78;;;6.94;75.18
78309;BME280;67566;42.022;21.356;2023-11-21T09:50:43;98420.34;;;6.98;75.43
78309;BME280;67566;42.022;21.356;2023-11-21T09:53:17;98420.81;;;7.05;74.77
78309;BME280;67566;42.022;21.356;2023-11-21T09:55:45;98414.22;;;7.03;74.40
78309;BME280;67566;42.022;21.356;2023-11-21T09:58:12;98413.13;;;7.04;74.66
78309;BME280;67566;42.022;21.356;2023-11-21T10:00:43;98407.78;;;7.09;74.77
78309;BME280;67566;42.022;21.356;2023-11-21T10:03:09;98410.09;;;7.15;74.98
78309;BME280;67566;42.022;21.356;2023-11-21T10:05:35;98413.19;;;7.23;74.34
78309;BME280;67566;42.022;21.356;2023-11-21T10:08:03;98400.69;;;7.28;75.24
78309;BME280;67566;42.022;21.356;2023-11-21T10:10:31;98392.38;;;7.35;74.92
78309;BME280;67566;42.022;21.356;2023-11-21T10:13:01;98383.88;;;7.38;74.27
78309;BME280;67566;42.022;21.356;2023-11-21T10:15:29;98376.38;;;7.45;74.15
78309;BME280;67566;42.022;21.356;2023-11-21T10:17:55;98369.94;;;7.51;74.14
78309;BME280;67566;42.022;21.356;2023-11-21T10:20:23;98368.50;;;7.59;73.90
78309;BME280;67566;42.022;21.356;2023-11-21T10:22:50;98360.22;;;7.66;74.17
78309;BME280;67566;42.022;21.356;2023-11-21T10:25:15;98348.53;;;7.67;73.60
78309;BME280;67566;42.022;21.356;2023-11-21T10:27:42;98357.78;;;7.69;73.66
78309;BME280;67566;42.022;21.356;2023-11-21T10:30:09;98355.34;;;7.73;73.85
78309;BME280;67566;42.022;21.356;2023-11-21T10:32:38;98353.69;;;7.77;73.88
78309;BME280;67566;42.022;21.356;2023-11-21T10:35:04;98340.13;;;7.79;73.50
78309;BME280;67566;42.022;21.356;2023-11-21T10:37:39;98331.13;;;7.80;73.58
78309;BME280;67566;42.022;21.356;2023-11-21T10:40:09;98329.19;;;7.85;73.09
78309;BME280;67566;42.022;21.356;2023-11-21T10:42:39;98322.22;;;7.89;73.35
78309;BME280;67566;42.022;21.356;2023-11-21T10:45:05;98314.69;;;7.97;73.03
78309;BME280;67566;42.022;21.356;2023-11-21T10:47:38;98307.94;;;8.04;72.57
78309;BME280;67566;42.022;21.356;2023-11-21T10:50:04;98308.44;;;8.06;72.24
78309;BME280;67566;42.022;21.356;2023-11-21T10:52:30;98311.78;;;8.12;72.13
78309;BME280;67566;42.022;21.356;2023-11-21T10:54:56;98308.28;;;8.17;72.42
78309;BME280;67566;42.022;21.356;2023-11-21T10:57:24;98307.41;;;8.21;72.41
78309;BME280;67566;42.022;21.356;2023-11-21T10:59:54;98297.28;;;8.23;72.34
78309;BME280;67566;42.022;21.356;2023-11-21T11:02:23;98299.03;;;8.28;72.67
78309;BME280;67566;42.022;21.356;2023-11-21T11:04:58;98292.09;;;8.32;72.08
78309;BME280;67566;42.022;21.356;2023-11-21T11:07:27;98291.00;;;8.33;71.95
78309;BME280;67566;42.022;21.356;2023-11-21T11:09:55;98283.66;;;8.30;71.67
78309;BME280;67566;42.022;21.356;2023-11-21T11:12:21;98281.47;;;8.32;71.34
78309;BME280;67566;42.022;21.356;2023-11-21T11:14:48;98271.84;;;8.36;71.81
78309;BME280;67566;42.022;21.356;2023-11-21T11:17:14;98264.09;;;8.40;71.79
78309;BME280;67566;42.022;21.356;2023-11-21T11:19:39;98269.03;;;8.46;71.31
78309;BME280;67566;42.022;21.356;2023-11-21T11:22:14;98277.41;;;8.54;71.46
78309;BME280;67566;42.022;21.356;2023-11-21T11:30:08;98259.31;;;8.69;70.51
78309;BME280;67566;42.022;21.356;2023-11-21T11:32:55;98264.81;;;8.73;71.04
78309;BME280;67566;42.022;21.356;2023-11-21T11:35:30;98262.97;;;8.74;70.82
78309;BME280;67566;42.022;21.356;2023-11-21T11:37:58;98255.47;;;8.76;70.74
78309;BME280;67566;42.022;21.356;2023-11-21T11:40:38;98255.38;;;8.81;71.25
78309;BME280;67566;42.022;21.356;2023-11-21T11:43:06;98245.34;;;8.78;70.67
78309;BME280;67566;42.022;21.356;2023-11-21T11:45:33;98245.44;;;8.73;70.75
78309;BME280;67566;42.022;21.356;2023-11-21T11:48:01;98247.81;;;8.74;70.76
78309;BME280;67566;42.022;21.356;2023-11-21T11:50:27;98237.28;;;8.69;71.02
78309;BME280;67566;42.022;21.356;2023-11-21T11:52:53;98236.19;;;8.70;70.74
78309;BME280;67566;42.022;21.356;2023-11-21T11:55:24;98226.97;;;8.67;70.29
78309;BME280;67566;42.022;21.356;2023-11-21T11:57:53;98221.56;;;8.73;70.41
78309;BME280;67566;42.022;21.356;2023-11-21T12:03:00;98215.25;;;8.82;69.58
78309;BME280;67566;42.022;21.356;2023-11-21T12:05:29;98208.84;;;8.83;69.49
78309;BME280;67566;42.022;21.356;2023-11-21T12:08:02;98208.28;;;8.86;68.02
78309;BME280;67566;42.022;21.356;2023-11-21T12:10:30;98200.00;;;8.88;67.87
78309;BME280;67566;42.022;21.356;2023-11-21T12:13:01;98207.34;;;8.91;68.33
78309;BME280;67566;42.022;21.356;2023-11-21T12:15:28;98202.84;;;8.92;68.86
78309;BME280;67566;42.022;21.356;2023-11-21T12:17:57;98197.25;;;8.93;68.94
78309;BME280;67566;42.022;21.356;2023-11-21T12:20:26;98186.31;;;8.95;68.55
78309;BME280;67566;42.022;21.356;2023-11-21T12:22:57;98188.47;;;8.93;69.20
78309;BME280;67566;42.022;21.356;2023-11-21T12:25:30;98183.16;;;8.93;69.40
78309;BME280;67566;42.022;21.356;2023-11-21T12:28:00;98174.59;;;8.96;69.70
78309;BME280;67566;42.022;21.356;2023-11-21T12:30:27;98176.19;;;8.97;69.72
78309;BME280;67566;42.022;21.356;2023-11-21T12:32:58;98177.44;;;8.99;69.53
78309;BME280;67566;42.022;21.356;2023-11-21T12:35:28;98174.97;;;9.03;69.67
78309;BME280;67566;42.022;21.356;2023-11-21T12:37:56;98170.25;;;9.00;70.14
78309;BME280;67566;42.022;21.356;2023-11-21T12:40:24;98171.53;;;9.02;69.98
78309;BME280;67566;42.022;21.356;2023-11-21T12:42:55;98164.16;;;8.99;69.38
78309;BME280;67566;42.022;21.356;2023-11-21T12:47:48;98150.72;;;8.96;69.33
78309;BME280;67566;42.022;21.356;2023-11-21T12:50:20;98154.25;;;8.91;69.34
78309;BME280;67566;42.022;21.356;2023-11-21T12:52:52;98154.25;;;8.91;69.28
78309;BME280;67566;42.022;21.356;2023-11-21T12:55:20;98136.28;;;8.88;68.90
78309;BME280;67566;42.022;21.356;2023-11-21T12:57:51;98141.13;;;8.86;69.34
78309;BME280;67566;42.022;21.356;2023-11-21T13:00:34;98135.31;;;8.84;69.23
78309;BME280;67566;42.022;21.356;2023-11-21T13:03:03;98129.50;;;8.82;69.86
78309;BME280;67566;42.022;21.356;2023-11-21T13:05:37;98134.34;;;8.80;69.72
78309;BME280;67566;42.022;21.356;2023-11-21T13:08:08;98151.84;;;8.81;69.51
78309;BME280;67566;42.022;21.356;2023-11-21T13:10:41;98146.03;;;8.79;69.36
78309;BME280;67566;42.022;21.356;2023-11-21T13:13:10;98142.31;;;8.80;69.45